Time;durP1;ratioP1;P1;durP2;ratioP2;P2;SDS_P1;SDS_P2;PMS_P1;PMS_P2;Temp;Humidity;BMP_temperature;BMP_pressure;BME280_temperature;BME280_humidity;BME280_pressure;Samples;Min_cycle;Max_cycle;Signal;HPM_P1;HPM_P2
2021/11/29 00:02:26;;;;;;;14.23;12.70;;;;;;;8.94;92.18;97943.98;1726202;80;22056;-59
2021/11/29 00:04:53;;;;;;;14.05;12.50;;;;;;;8.93;92.17;97947.56;1735168;81;21055;-59
2021/11/29 00:07:21;;;;;;;14.35;12.07;;;;;;;8.94;92.20;97938.27;1734934;80;21429;-59
2021/11/29 00:09:48;;;;;;;14.70;12.80;;;;;;;9.03;91.88;97936.85;1730838;80;21456;-60
2021/11/29 00:12:16;;;;;;;;;;;;;;;9.06;91.86;97926.19;1743058;80;21495;-59
2021/11/29 00:14:43;;;;;;;17.95;13.45;;;;;;;9.04;91.89;97917.58;1729563;81;20750;-59
2021/11/29 00:17:10;;;;;;;13.95;11.97;;;;;;;8.98;92.15;97916.63;1743093;80;21510;-59
2021/11/29 00:19:37;;;;;;;13.90;12.18;;;;;;;8.98;92.37;97906.63;1740718;80;21628;-60
2021/11/29 00:22:04;;;;;;;14.63;11.57;;;;;;;9.04;92.33;97903.61;1742916;80;21531;-59
2021/11/29 00:24:31;;;;;;;13.58;12.18;;;;;;;9.07;92.22;97896.39;1732790;80;21415;-59
2021/11/29 00:27:00;;;;;;;14.70;12.63;;;;;;;9.08;92.20;97892.84;1728560;80;21764;-59
2021/11/29 00:29:26;;;;;;;14.23;11.83;;;;;;;9.05;92.28;97891.72;1738098;80;21458;-59
2021/11/29 00:31:53;;;;;;;12.63;10.55;;;;;;;9.02;92.55;97885.83;1737313;80;21502;-60
2021/11/29 00:34:22;;;;;;;12.80;11.38;;;;;;;9.09;92.60;97881.39;1744778;81;21419;-59
2021/11/29 00:36:51;;;;;;;13.78;11.50;;;;;;;9.12;92.51;97881.20;1737557;80;21042;-60
2021/11/29 00:39:18;;;;;;;13.23;11.83;;;;;;;9.13;92.50;97882.87;1722198;81;22014;-61
2021/11/29 00:41:45;;;;;;;13.08;11.45;;;;;;;9.10;92.80;97870.46;1733927;80;21027;-61
2021/11/29 00:44:13;;;;;;;13.68;10.78;;;;;;;9.07;92.86;97869.34;1731784;80;21549;-61
2021/11/29 00:46:41;;;;;;;13.75;11.65;;;;;;;9.11;93.07;97857.70;1734716;80;21558;-60
2021/11/29 00:49:09;;;;;;;12.90;11.53;;;;;;;9.20;92.78;97851.03;1740084;80;21022;-60
2021/11/29 00:51:36;;;;;;;14.45;11.68;;;;;;;9.24;92.61;97850.71;1706952;82;21552;-60
2021/11/29 00:54:03;;;;;;;14.33;11.45;;;;;;;9.25;92.58;97847.61;1687061;83;21531;-61
2021/11/29 00:56:30;;;;;;;12.83;11.10;;;;;;;9.22;92.53;97852.59;1701818;83;21459;-59
2021/11/29 00:58:57;;;;;;;;;;;;;;;9.24;92.58;97847.27;1705378;83;21511;-60
2021/11/29 01:01:24;;;;;;;14.20;11.28;;;;;;;9.31;92.37;97842.81;1691073;82;20224;-61
2021/11/29 01:03:51;;;;;;;12.07;10.85;;;;;;;9.33;92.08;97835.69;1682821;82;21816;-59
2021/11/29 01:06:19;;;;;;;12.58;11.25;;;;;;;9.31;92.09;97835.42;1700508;82;21439;-58
2021/11/29 01:08:46;;;;;;;14.28;10.95;;;;;;;9.24;92.27;97834.98;1687879;84;21052;-59
2021/11/29 01:11:13;;;;;;;13.22;11.33;;;;;;;9.26;92.38;97830.47;1683693;83;21054;-58
2021/11/29 01:13:40;;;;;;;12.35;11.08;;;;;;;9.35;92.31;97824.61;1684906;83;20970;-58
2021/11/29 01:16:08;;;;;;;13.10;11.63;;;;;;;9.43;91.95;97821.95;1677837;84;21782;-59
2021/11/29 01:18:35;;;;;;;;;;;;;;;9.43;91.74;97814.92;1687984;83;21547;-59
2021/11/29 01:21:02;;;;;;;14.07;10.37;;;;;;;9.39;91.76;97813.45;1685766;84;20528;-59
2021/11/29 01:23:29;;;;;;;11.47;10.17;;;;;;;9.35;91.74;97818.06;1677786;84;21499;-59
2021/11/29 01:25:56;;;;;;;12.40;10.20;;;;;;;9.32;91.83;97818.28;1679016;83;22102;-59
2021/11/29 01:28:23;;;;;;;10.75;9.65;;;;;;;9.38;91.79;97814.86;1676932;84;21890;-59
2021/11/29 01:30:50;;;;;;;13.15;10.18;;;;;;;9.42;91.74;97808.02;1681535;83;21446;-59
2021/11/29 01:33:18;;;;;;;10.72;9.60;;;;;;;9.47;91.53;97802.44;1686513;83;21489;-59
2021/11/29 01:35:45;;;;;;;13.32;10.30;;;;;;;9.44;91.46;97793.01;1682441;83;21549;-59
2021/11/29 01:38:13;;;;;;;11.68;9.25;;;;;;;9.41;91.60;97796.30;1686077;84;21440;-59
2021/11/29 01:40:41;;;;;;;12.50;9.83;;;;;;;9.42;91.56;97787.48;1684747;83;22002;-59
2021/11/29 01:43:16;;;;;;;9.80;8.80;;;;;;;9.45;91.43;97777.62;1685712;84;21007;-59
2021/11/29 01:46:02;;;;;;;11.18;9.20;;;;;;;9.47;91.51;97778.83;1681093;84;21509;-62
2021/11/29 01:48:29;;;;;;;10.38;9.30;;;;;;;9.49;91.41;97779.11;1680310;84;20962;-58
2021/11/29 01:50:58;;;;;;;11.18;8.53;;;;;;;9.44;91.28;97773.33;1671936;84;21437;-59
2021/11/29 01:53:27;;;;;;;10.98;8.40;;;;;;;9.40;91.52;97773.63;1669640;84;22054;-59
2021/11/29 01:55:57;;;;;;;11.08;8.20;;;;;;;9.41;91.49;97768.77;1675331;85;21035;-59
2021/11/29 01:58:23;;;;;;;8.43;7.62;;;;;;;9.48;91.36;97773.97;1673433;85;21412;-60
2021/11/29 02:00:52;;;;;;;8.53;7.73;;;;;;;9.51;91.19;97766.73;1674273;85;21904;-59
2021/11/29 02:03:23;;;;;;;8.63;7.78;;;;;;;9.53;91.10;97766.15;1671952;84;21639;-59
2021/11/29 02:05:48;;;;;;;9.48;8.30;;;;;;;9.52;90.91;97754.45;1672197;85;21780;-60
2021/11/29 02:08:16;;;;;;;9.98;8.38;;;;;;;9.44;91.01;97752.34;1670863;84;21507;-59
2021/11/29 02:10:43;;;;;;;8.58;7.70;;;;;;;9.45;91.15;97747.93;1674838;85;22136;-60
2021/11/29 02:13:10;;;;;;;10.03;7.72;;;;;;;9.53;90.97;97746.92;1673914;85;20981;-59
2021/11/29 02:15:40;;;;;;;9.15;8.23;;;;;;;9.58;90.79;97740.06;1667228;85;21525;-59
2021/11/29 02:18:07;;;;;;;13.10;8.50;;;;;;;9.62;90.59;97738.91;1674221;85;21751;-60
2021/11/29 02:20:35;;;;;;;;;;;;;;;9.61;90.30;97744.63;1673807;85;21620;-59
2021/11/29 02:23:03;;;;;;;11.08;9.93;;;;;;;9.56;90.20;97745.41;1674677;84;20193;-60
2021/11/29 02:25:30;;;;;;;;;;;;;;;9.57;90.00;97741.00;1672981;85;21535;-60
2021/11/29 02:27:57;;;;;;;9.68;8.68;;;;;;;9.63;89.75;97737.97;1675433;84;20409;-59
2021/11/29 02:30:25;;;;;;;9.87;8.47;;;;;;;9.66;89.65;97740.36;1673465;84;21810;-60
2021/11/29 02:32:53;;;;;;;10.25;9.13;;;;;;;9.63;89.55;97740.11;1671039;85;21605;-59
2021/11/29 02:35:21;;;;;;;;;;;;;;;9.58;89.47;97736.13;1671885;85;22139;-60
2021/11/29 02:37:49;;;;;;;11.18;8.38;;;;;;;9.58;89.40;97722.53;1674119;85;20440;-59
2021/11/29 02:40:16;;;;;;;;;;;;;;;9.65;89.10;97720.33;1653892;85;21565;-59
2021/11/29 02:42:43;;;;;;;11.28;10.18;;;;;;;9.66;89.12;97721.99;1673146;85;21149;-59
2021/11/29 02:45:11;;;;;;;10.55;9.50;;;;;;;9.59;89.02;97717.66;1672281;85;21575;-59
2021/11/29 02:47:37;;;;;;;12.10;9.50;;;;;;;9.54;89.04;97719.28;1667912;84;21508;-59
2021/11/29 02:50:05;;;;;;;11.03;9.37;;;;;;;9.54;89.03;97714.03;1670993;85;21598;-59
2021/11/29 02:52:33;;;;;;;10.58;9.28;;;;;;;9.61;88.87;97715.77;1670617;84;21416;-59
2021/11/29 02:54:59;;;;;;;10.80;9.60;;;;;;;9.63;88.75;97707.80;1669981;84;21778;-59
2021/11/29 02:57:26;;;;;;;11.00;9.80;;;;;;;9.57;88.80;97707.75;1664937;85;21035;-58
2021/11/29 02:59:53;;;;;;;11.67;9.53;;;;;;;9.51;88.79;97695.03;1670362;85;21650;-59
2021/11/29 03:02:21;;;;;;;11.00;9.08;;;;;;;9.49;88.96;97688.61;1671520;85;21492;-58
2021/11/29 03:04:48;;;;;;;10.40;8.90;;;;;;;9.55;88.88;97688.17;1670323;85;21482;-58
2021/11/29 03:07:15;;;;;;;11.78;9.93;;;;;;;9.60;88.84;97680.45;1660699;85;21783;-58
2021/11/29 03:09:42;;;;;;;10.80;9.27;;;;;;;9.58;88.69;97666.13;1673110;85;21408;-58
2021/11/29 03:12:10;;;;;;;;;;;;;;;9.51;88.78;97670.97;1671665;85;21567;-58
2021/11/29 03:14:37;;;;;;;11.30;8.65;;;;;;;9.46;88.85;97669.14;1667753;85;20416;-59
2021/11/29 03:17:04;;;;;;;10.27;9.27;;;;;;;9.52;88.80;97674.43;1668165;84;21045;-59
2021/11/29 03:19:33;;;;;;;;;;;;;;;9.57;88.65;97666.22;1660351;85;21781;-59
2021/11/29 03:22:01;;;;;;;13.43;9.03;;;;;;;9.54;88.58;97661.55;1655644;85;20426;-58
2021/11/29 03:24:28;;;;;;;11.33;9.20;;;;;;;9.46;88.72;97648.16;1658964;84;21558;-59
2021/11/29 03:26:55;;;;;;;10.38;8.55;;;;;;;9.40;88.70;97643.80;1656053;85;21763;-59
2021/11/29 03:29:22;;;;;;;10.40;9.13;;;;;;;9.39;88.88;97637.72;1655208;85;21462;-59
2021/11/29 03:31:55;;;;;;;9.25;8.13;;;;;;;9.46;88.89;97634.20;1657210;85;22142;-58
2021/11/29 03:34:19;;;;;;;9.23;8.33;;;;;;;9.49;88.74;97632.66;1656363;85;21501;-58
2021/11/29 03:36:48;;;;;;;9.88;8.98;;;;;;;9.45;88.74;97633.83;1672022;85;21515;-59
2021/11/29 03:39:19;;;;;;;9.80;8.68;;;;;;;9.39;88.81;97636.41;1666710;85;21515;-59
2021/11/29 03:41:46;;;;;;;8.73;7.83;;;;;;;9.37;89.07;97629.60;1668130;85;21562;-60
2021/11/29 03:44:14;;;;;;;8.23;7.53;;;;;;;9.44;88.97;97625.13;1670539;85;21683;-59
2021/11/29 03:46:42;;;;;;;9.35;8.38;;;;;;;9.47;88.78;97618.81;1671858;85;22171;-60
2021/11/29 03:49:09;;;;;;;11.40;9.60;;;;;;;9.42;88.87;97621.78;1674408;85;21523;-59
2021/11/29 03:51:36;;;;;;;9.08;8.25;;;;;;;9.38;88.91;97622.08;1674540;85;21424;-59
2021/11/29 03:54:03;;;;;;;8.38;7.60;;;;;;;9.36;88.96;97609.06;1676633;85;21572;-59
2021/11/29 03:56:31;;;;;;;9.93;7.60;;;;;;;9.40;89.00;97612.31;1676089;84;21575;-58
2021/11/29 03:58:58;;;;;;;8.73;7.92;;;;;;;9.43;89.00;97600.31;1669441;85;21804;-59
2021/11/29 04:01:25;;;;;;;9.88;8.88;;;;;;;9.45;88.98;97603.18;1674586;85;21448;-59
2021/11/29 04:03:52;;;;;;;10.33;8.40;;;;;;;9.41;88.84;97599.58;1679122;84;20987;-58
2021/11/29 04:06:20;;;;;;;9.83;8.83;;;;;;;9.36;88.93;97595.95;1680241;84;21437;-59
2021/11/29 04:08:47;;;;;;;8.23;7.42;;;;;;;9.39;88.88;97585.26;1682508;84;21709;-58
2021/11/29 04:11:15;;;;;;;;;;;;;;;9.42;88.89;97581.12;1675784;84;21570;-59
2021/11/29 04:13:42;;;;;;;10.63;8.43;;;;;;;9.39;88.54;97570.83;1675863;84;20143;-60
2021/11/29 04:16:12;;;;;;;10.45;9.23;;;;;;;9.39;88.54;97570.83;1683372;84;21507;-59
2021/11/29 04:18:41;;;;;;;8.55;7.72;;;;;;;9.30;88.54;97563.13;1677646;84;21459;-60
2021/11/29 04:21:09;;;;;;;8.75;7.95;;;;;;;9.27;88.81;97563.38;1675796;84;21435;-60
2021/11/29 04:23:36;;;;;;;9.38;8.48;;;;;;;9.33;88.88;97568.17;1679160;84;21403;-59
2021/11/29 04:26:04;;;;;;;10.58;9.00;;;;;;;9.35;88.81;97557.09;1683053;84;21536;-60
2021/11/29 04:28:32;;;;;;;9.90;8.53;;;;;;;9.31;88.61;97562.68;1678156;84;21670;-59
2021/11/29 04:30:59;;;;;;;8.78;7.97;;;;;;;9.24;88.67;97564.05;1672805;84;21518;-60
2021/11/29 04:33:26;;;;;;;9.53;8.40;;;;;;;9.25;88.76;97563.09;1676364;84;21807;-60
2021/11/29 04:35:53;;;;;;;7.72;7.12;;;;;;;9.26;88.81;97572.17;1678338;84;21731;-60
2021/11/29 04:38:20;;;;;;;9.40;8.37;;;;;;;9.28;88.87;97565.03;1683317;84;20927;-59
2021/11/29 04:40:47;;;;;;;8.85;8.05;;;;;;;9.29;88.79;97562.78;1680452;84;21580;-59
2021/11/29 04:43:15;;;;;;;11.07;8.50;;;;;;;9.24;88.67;97546.53;1676965;84;21618;-60
2021/11/29 04:45:43;;;;;;;9.08;8.25;;;;;;;9.18;88.97;97550.91;1682842;84;22290;-61
2021/11/29 04:48:10;;;;;;;9.25;8.38;;;;;;;9.23;89.00;97543.56;1685491;83;21526;-60
2021/11/29 04:50:38;;;;;;;8.97;8.10;;;;;;;9.28;88.88;97539.28;1693227;83;21545;-59
2021/11/29 04:53:05;;;;;;;9.40;8.38;;;;;;;9.27;88.76;97541.08;1698357;83;21552;-59
2021/11/29 04:55:33;;;;;;;9.73;8.65;;;;;;;9.20;88.92;97542.94;1697478;83;22029;-60
2021/11/29 04:58:00;;;;;;;;;;;;;;;9.14;89.01;97545.52;1699355;83;21463;-59
2021/11/29 05:00:28;;;;;;;10.08;8.93;;;;;;;9.18;89.25;97546.97;1659240;84;20426;-60
2021/11/29 05:02:55;;;;;;;10.30;9.15;;;;;;;9.22;88.98;97547.11;1693372;83;21610;-60
2021/11/29 05:05:22;;;;;;;10.18;9.18;;;;;;;9.18;89.17;97540.41;1694685;83;21497;-59
2021/11/29 05:07:50;;;;;;;10.32;9.35;;;;;;;9.16;89.12;97541.83;1694446;82;21601;-59
2021/11/29 05:10:17;;;;;;;11.45;9.15;;;;;;;9.13;89.21;97532.86;1694448;83;21714;-59
2021/11/29 05:12:44;;;;;;;9.30;8.33;;;;;;;9.18;89.20;97530.41;1693476;83;21597;-60
2021/11/29 05:15:12;;;;;;;10.28;9.18;;;;;;;9.28;89.26;97516.52;1694042;83;21568;-59
2021/11/29 05:17:40;;;;;;;10.88;8.33;;;;;;;9.28;89.26;97516.52;1696897;83;21526;-59
2021/11/29 05:20:08;;;;;;;12.00;10.10;;;;;;;9.27;88.75;97516.17;1707998;83;21700;-59
2021/11/29 05:22:36;;;;;;;10.63;9.23;;;;;;;9.23;88.72;97513.41;1678462;83;21790;-60
2021/11/29 05:25:04;;;;;;;9.30;8.50;;;;;;;9.24;88.78;97511.61;1692967;83;21429;-59
2021/11/29 05:27:31;;;;;;;11.33;8.88;;;;;;;9.31;88.54;97516.30;1694099;83;21567;-59
2021/11/29 05:29:58;;;;;;;11.12;9.58;;;;;;;9.31;88.36;97522.86;1693771;84;20996;-60
2021/11/29 05:32:26;;;;;;;12.37;9.75;;;;;;;9.29;88.49;97524.76;1694573;83;21467;-59
2021/11/29 05:34:54;;;;;;;9.98;9.08;;;;;;;9.27;88.41;97525.83;1693764;83;21804;-61
2021/11/29 05:37:22;;;;;;;10.65;9.55;;;;;;;9.31;88.58;97535.14;1697631;82;21010;-58
2021/11/29 05:39:50;;;;;;;11.97;9.73;;;;;;;9.31;88.58;97535.14;1696561;82;20969;-59
2021/11/29 05:42:17;;;;;;;12.82;10.53;;;;;;;9.31;88.23;97539.91;1694771;83;21467;-59
2021/11/29 05:44:45;;;;;;;12.60;11.40;;;;;;;9.24;88.25;97537.34;1703836;83;21533;-58
2021/11/29 05:47:12;;;;;;;16.42;11.30;;;;;;;9.20;88.47;97534.59;1697857;83;21828;-59
2021/11/29 05:49:39;;;;;;;11.43;10.20;;;;;;;9.23;88.52;97526.97;1695565;82;21733;-59
2021/11/29 05:52:07;;;;;;;10.95;9.83;;;;;;;9.28;88.26;97525.69;1695245;82;21509;-59
2021/11/29 05:54:34;;;;;;;12.43;11.22;;;;;;;9.28;88.24;97528.80;1693743;82;21412;-59
2021/11/29 05:57:01;;;;;;;13.70;11.78;;;;;;;9.25;88.33;97522.00;1685335;82;21519;-59
2021/11/29 05:59:28;;;;;;;12.10;10.80;;;;;;;9.20;88.38;97519.34;1693128;84;21786;-58
2021/11/29 06:01:55;;;;;;;12.15;10.68;;;;;;;9.22;88.50;97514.81;1693908;82;21499;-59
2021/11/29 06:04:22;;;;;;;13.57;10.87;;;;;;;9.26;88.42;97518.89;1699379;82;21446;-59
2021/11/29 06:06:49;;;;;;;15.17;11.33;;;;;;;9.29;88.22;97518.20;1691583;84;20992;-58
2021/11/29 06:09:17;;;;;;;12.88;11.22;;;;;;;9.23;88.15;97506.85;1692947;84;21510;-59
2021/11/29 06:11:44;;;;;;;12.33;10.60;;;;;;;9.17;88.33;97504.64;1694212;82;21540;-59
2021/11/29 06:14:11;;;;;;;12.60;11.12;;;;;;;9.18;88.56;97510.27;1693871;82;21411;-59
2021/11/29 06:16:38;;;;;;;12.93;11.28;;;;;;;9.26;88.55;97511.03;1693718;82;21502;-60
2021/11/29 06:19:06;;;;;;;12.18;10.95;;;;;;;9.31;88.25;97503.67;1692792;84;21510;-59
2021/11/29 06:21:33;;;;;;;13.28;11.88;;;;;;;9.30;88.15;97502.81;1695072;82;21452;-59
2021/11/29 06:24:00;;;;;;;12.53;11.20;;;;;;;9.26;88.15;97514.48;1694195;82;22049;-59
2021/11/29 06:26:27;;;;;;;13.27;11.83;;;;;;;9.27;88.19;97511.41;1692761;84;21556;-59
2021/11/29 06:28:54;;;;;;;14.27;11.27;;;;;;;9.32;87.99;97507.51;1693034;82;21486;-59
2021/11/29 06:31:21;;;;;;;13.22;11.88;;;;;;;9.39;87.72;97513.61;1692909;82;21475;-62
2021/11/29 06:33:48;;;;;;;13.88;12.43;;;;;;;9.33;87.71;97493.91;1697132;82;21596;-59
2021/11/29 06:36:16;;;;;;;13.53;11.97;;;;;;;9.27;87.83;97487.32;1698119;83;25480;-59
2021/11/29 06:38:43;;;;;;;12.70;11.28;;;;;;;9.26;88.13;97489.56;1694705;82;21470;-60
2021/11/29 06:41:10;;;;;;;15.55;12.10;;;;;;;9.33;88.18;97480.80;1694162;82;25608;-59
2021/11/29 06:43:37;;;;;;;13.35;11.90;;;;;;;9.37;88.08;97469.61;1692900;84;21435;-59
2021/11/29 06:46:04;;;;;;;14.28;12.78;;;;;;;9.34;87.98;97457.54;1695263;82;21447;-59
2021/11/29 06:48:31;;;;;;;18.23;13.20;;;;;;;9.29;87.99;97467.06;1701097;82;21836;-60
2021/11/29 06:50:59;;;;;;;13.35;12.10;;;;;;;9.28;88.12;97463.23;1693934;82;21415;-60
2021/11/29 06:53:25;;;;;;;15.90;12.07;;;;;;;9.35;88.13;97449.57;1692905;84;21459;-61
2021/11/29 06:55:55;;;;;;;13.95;12.45;;;;;;;9.40;87.99;97441.38;1692773;82;22209;-59
2021/11/29 06:58:23;;;;;;;18.50;13.32;;;;;;;9.40;87.70;97440.52;1694560;83;21107;-60
2021/11/29 07:00:50;;;;;;;15.20;11.70;;;;;;;9.33;87.85;97427.87;1689653;84;21790;-60
2021/11/29 07:03:19;;;;;;;13.80;11.20;;;;;;;9.35;88.21;97417.27;1692252;84;21625;-60
2021/11/29 07:05:50;;;;;;;12.35;11.05;;;;;;;9.43;88.11;97408.35;1694023;82;21651;-58
2021/11/29 07:08:18;;;;;;;16.75;12.45;;;;;;;9.50;88.02;97400.88;1690306;84;21679;-56
2021/11/29 07:10:47;;;;;;;;;;;;;;;9.49;87.98;97400.50;1697501;82;21638;-56
2021/11/29 07:13:15;;;;;;;13.30;11.80;;;;;;;9.48;88.14;97398.84;1684428;83;22013;-57
2021/11/29 07:15:43;;;;;;;12.35;11.15;;;;;;;9.47;88.28;97399.78;1667487;84;21017;-57
2021/11/29 07:18:11;;;;;;;12.60;11.08;;;;;;;9.58;88.10;97394.58;1662345;85;21080;-55
2021/11/29 07:20:38;;;;;;;13.88;12.20;;;;;;;9.64;87.79;97395.42;1666402;84;21601;-56
2021/11/29 07:23:06;;;;;;;14.98;12.68;;;;;;;9.68;87.55;97396.03;1694154;82;21521;-57
2021/11/29 07:25:33;;;;;;;13.70;11.53;;;;;;;9.67;87.63;97392.58;1694498;82;21827;-57
2021/11/29 07:28:00;;;;;;;15.23;10.87;;;;;;;9.67;87.72;97395.69;1692772;84;21392;-57
2021/11/29 07:30:28;;;;;;;12.63;11.08;;;;;;;9.75;87.74;97384.95;1692820;84;21461;-55
2021/11/29 07:32:56;;;;;;;13.20;11.10;;;;;;;9.86;87.42;97386.78;1692208;84;21463;-58
2021/11/29 07:35:26;;;;;;;17.10;12.00;;;;;;;9.88;87.15;97378.31;1692627;84;21533;-57
2021/11/29 07:37:54;;;;;;;13.00;11.10;;;;;;;9.84;87.31;97379.50;1692437;84;21768;-58
2021/11/29 07:40:21;;;;;;;15.23;11.12;;;;;;;9.85;87.24;97382.50;1693987;82;21588;-58
2021/11/29 07:42:49;;;;;;;11.20;10.05;;;;;;;9.94;87.22;97383.12;1694130;82;21504;-58
2021/11/29 07:45:16;;;;;;;12.63;10.95;;;;;;;10.02;86.93;97378.59;1692792;84;21569;-58
2021/11/29 07:47:43;;;;;;;;;;;;;;;10.05;86.70;97377.51;1697962;82;21569;-58
2021/11/29 07:50:14;;;;;;;13.95;12.53;;;;;;;10.01;86.65;97380.84;1693887;82;20801;-57
2021/11/29 07:52:44;;;;;;;13.95;11.60;;;;;;;9.97;86.73;97383.34;1694275;82;21426;-57
2021/11/29 07:55:13;;;;;;;13.15;9.55;;;;;;;9.98;86.84;97365.31;1694088;82;21430;-57
2021/11/29 07:57:40;;;;;;;17.95;11.38;;;;;;;10.01;86.96;97371.66;1692451;84;21440;-57
2021/11/29 08:00:10;;;;;;;15.13;11.45;;;;;;;10.07;86.70;97363.78;1693501;82;21034;-58
2021/11/29 08:02:37;;;;;;;15.93;12.10;;;;;;;10.03;86.77;97358.42;1692999;82;21801;-58
2021/11/29 08:07:42;;;;;;;13.65;10.70;;;;;;;10.07;87.60;97340.98;1769485;78;23283;-56
2021/11/29 08:10:09;;;;;;;18.27;10.90;;;;;;;10.09;87.45;97341.70;1731741;81;21830;-57
2021/11/29 08:12:36;;;;;;;17.70;12.10;;;;;;;10.17;87.37;97346.38;1734346;81;21778;-57
2021/11/29 08:15:04;;;;;;;16.97;12.30;;;;;;;10.23;87.17;97329.31;1734982;81;20934;-59
2021/11/29 08:17:31;;;;;;;15.95;12.65;;;;;;;10.19;87.24;97318.21;1733106;81;21494;-57
2021/11/29 08:19:58;;;;;;;16.17;10.77;;;;;;;10.20;87.07;97318.55;1741002;81;21534;-57
2021/11/29 08:22:26;;;;;;;15.97;10.53;;;;;;;10.23;87.20;97310.93;1731403;81;21602;-57
2021/11/29 08:24:53;;;;;;;14.37;12.00;;;;;;;10.31;87.10;97309.38;1735693;80;21810;-57
2021/11/29 08:27:20;;;;;;;15.88;12.00;;;;;;;10.36;86.88;97305.09;1750338;80;21509;-54
2021/11/29 08:29:47;;;;;;;20.40;12.47;;;;;;;10.33;86.87;97301.39;1728709;80;21490;-54
2021/11/29 08:32:16;;;;;;;15.03;11.85;;;;;;;10.30;86.94;97289.34;1729143;81;21093;-54
2021/11/29 08:34:44;;;;;;;14.03;12.53;;;;;;;10.33;87.05;97293.02;1741483;80;21062;-56
2021/11/29 08:37:12;;;;;;;16.00;11.03;;;;;;;10.39;87.02;97280.36;1729871;80;21806;-56
2021/11/29 08:39:39;;;;;;;17.10;12.90;;;;;;;10.46;86.97;97265.79;1732512;81;21013;-56
2021/11/29 08:42:06;;;;;;;18.90;13.38;;;;;;;10.45;86.93;97264.97;1733529;80;21470;-56
2021/11/29 08:44:34;;;;;;;22.95;13.03;;;;;;;10.39;87.11;97254.09;1731453;81;21444;-55
2021/11/29 08:47:01;;;;;;;15.88;11.78;;;;;;;10.37;87.43;97242.88;1720673;81;21494;-55
2021/11/29 08:49:28;;;;;;;14.25;11.03;;;;;;;10.39;87.71;97235.22;1737691;81;21762;-55
2021/11/29 08:51:55;;;;;;;16.70;12.13;;;;;;;10.46;87.62;97232.47;1728189;81;21472;-55
2021/11/29 08:54:23;;;;;;;15.87;12.57;;;;;;;10.45;87.66;97215.51;1732719;80;21781;-56
2021/11/29 08:56:50;;;;;;;16.40;11.77;;;;;;;10.42;87.77;97211.84;1731754;80;21502;-55
2021/11/29 08:59:20;;;;;;;14.78;11.60;;;;;;;10.37;88.20;97206.94;1740354;80;21612;-56
2021/11/29 09:01:49;;;;;;;18.57;11.78;;;;;;;10.38;88.38;97195.48;1731735;80;21724;-57
2021/11/29 09:04:17;;;;;;;18.65;13.05;;;;;;;10.43;88.46;97185.91;1725970;81;21471;-56
2021/11/29 09:06:44;;;;;;;;;;;;;;;10.46;88.49;97181.73;1730935;80;21574;-56
2021/11/29 09:09:11;;;;;;;17.60;13.48;;;;;;;10.42;88.61;97174.57;1732199;81;20165;-56
2021/11/29 09:11:39;;;;;;;14.30;10.90;;;;;;;10.37;88.95;97174.10;1732059;81;21487;-57
2021/11/29 09:14:06;;;;;;;16.80;11.95;;;;;;;10.44;88.99;97171.83;1728856;81;22373;-60
2021/11/29 09:16:35;;;;;;;17.40;12.05;;;;;;;10.49;88.98;97171.80;1729750;81;21044;-56
2021/11/29 09:19:02;;;;;;;15.38;11.65;;;;;;;10.56;88.79;97167.35;1734772;80;21664;-56
2021/11/29 09:21:29;;;;;;;20.43;14.07;;;;;;;10.59;88.79;97163.17;1730635;81;21507;-56
2021/11/29 09:23:56;;;;;;;20.70;12.53;;;;;;;10.59;88.58;97157.91;1725212;81;20982;-56
2021/11/29 09:26:24;;;;;;;16.82;11.50;;;;;;;10.60;88.79;97147.73;1734871;80;22092;-57
2021/11/29 09:28:51;;;;;;;13.38;10.82;;;;;;;10.69;88.65;97146.49;1735325;80;21537;-56
2021/11/29 09:31:19;;;;;;;16.30;12.03;;;;;;;10.77;88.58;97142.41;1743455;80;21076;-56
2021/11/29 09:33:46;;;;;;;15.35;12.82;;;;;;;10.79;88.38;97133.91;1736996;80;21573;-56
2021/11/29 09:36:13;;;;;;;15.80;13.40;;;;;;;10.78;88.45;97133.57;1736403;80;21437;-57
2021/11/29 09:38:40;;;;;;;20.05;12.30;;;;;;;10.76;88.33;97131.06;1739036;81;21521;-58
2021/11/29 09:41:07;;;;;;;14.77;11.63;;;;;;;10.81;88.27;97121.01;1728417;80;21408;-57
2021/11/29 09:43:35;;;;;;;17.30;12.98;;;;;;;10.86;88.04;97111.41;1724862;81;21557;-57
2021/11/29 09:46:02;;;;;;;15.15;11.73;;;;;;;10.91;87.98;97099.54;1735293;81;21456;-57
2021/11/29 09:48:29;;;;;;;18.32;12.85;;;;;;;10.95;87.80;97088.28;1726891;81;21510;-57
2021/11/29 09:50:56;;;;;;;16.87;12.95;;;;;;;10.98;87.68;97084.55;1734368;81;22096;-57
2021/11/29 09:53:28;;;;;;;17.17;12.57;;;;;;;10.49;87.49;96976.55;1731727;80;21542;-60
2021/11/29 09:55:55;;;;;;;16.45;11.90;;;;;;;10.49;87.49;96976.55;1736757;80;22002;-56
2021/11/29 09:58:22;;;;;;;14.47;11.67;;;;;;;11.12;87.39;97048.72;1731203;81;21483;-56
2021/11/29 10:00:52;;;;;;;15.53;12.15;;;;;;;11.21;87.09;97047.10;1737292;81;27117;-56
2021/11/29 10:03:19;;;;;;;15.35;13.03;;;;;;;11.25;86.84;97037.97;1741069;80;22035;-56
2021/11/29 10:05:46;;;;;;;15.95;12.63;;;;;;;11.23;86.65;97032.84;1740187;80;21537;-56
2021/11/29 10:08:33;;;;;;;18.17;12.55;;;;;;;11.20;86.46;97027.84;1739548;80;21613;-57
2021/11/29 10:11:06;;;;;;;13.53;11.70;;;;;;;11.20;86.54;97036.22;1731990;81;21534;-55
2021/11/29 10:14:02;;;;;;;13.35;11.15;;;;;;;11.22;86.34;97038.23;1743709;80;21425;-56
2021/11/29 10:16:45;;;;;;;16.65;12.70;;;;;;;11.23;86.25;97035.47;1738808;80;21802;-56
2021/11/29 10:19:24;;;;;;;18.12;13.65;;;;;;;11.18;86.14;97034.20;1728671;80;21483;-57
2021/11/29 10:21:51;;;;;;;13.98;12.05;;;;;;;11.12;86.30;97032.94;1742106;80;21544;-55
2021/11/29 10:24:19;;;;;;;13.43;11.20;;;;;;;11.12;86.39;97019.79;1732332;81;21045;-56
2021/11/29 10:26:52;;;;;;;13.93;11.00;;;;;;;11.18;86.28;97023.20;1731655;81;21013;-56
2021/11/29 10:29:20;;;;;;;15.48;12.28;;;;;;;11.20;86.23;97011.23;1744337;80;21669;-56
2021/11/29 10:31:49;;;;;;;14.70;13.08;;;;;;;11.20;86.12;97004.66;1745676;81;21562;-56
2021/11/29 10:34:23;;;;;;;23.75;12.58;;;;;;;11.17;86.01;97001.83;1734510;81;21438;-57
2021/11/29 10:37:01;;;;;;;15.48;11.53;;;;;;;11.17;86.08;96997.87;1732916;80;21077;-55
2021/11/29 10:39:31;;;;;;;11.40;10.20;;;;;;;11.26;85.95;96994.91;1740516;81;21550;-55
2021/11/29 10:42:01;;;;;;;19.00;11.10;;;;;;;11.28;85.60;96992.97;1738001;80;21837;-56
2021/11/29 10:44:31;;;;;;;15.65;12.55;;;;;;;11.20;85.50;96988.39;1725217;81;21502;-57
2021/11/29 10:47:02;;;;;;;13.00;10.93;;;;;;;11.15;85.64;96987.98;1737045;81;21490;-56
2021/11/29 10:49:37;;;;;;;14.25;10.32;;;;;;;11.13;85.71;96987.25;1695133;83;21522;-56
2021/11/29 10:52:03;;;;;;;14.90;10.65;;;;;;;11.18;85.73;96986.38;1677825;83;21426;-57
2021/11/29 10:54:32;;;;;;;;;;;;;;;11.22;85.56;96980.37;1700480;83;21796;-57
2021/11/29 10:56:59;;;;;;;13.03;11.10;;;;;;;11.18;85.54;96974.54;1703170;82;20435;-58
2021/11/29 10:59:29;;;;;;;16.00;9.98;;;;;;;11.12;85.64;96973.77;1697988;83;21505;-55
2021/11/29 11:02:25;;;;;;;15.15;10.38;;;;;;;11.09;85.77;96970.08;1677025;84;21520;-56
2021/11/29 11:05:06;;;;;;;15.48;9.20;;;;;;;11.15;85.65;96967.40;1705350;82;21601;-55
2021/11/29 11:07:35;;;;;;;12.33;9.75;;;;;;;11.20;85.47;96964.72;1689483;83;21762;-56
2021/11/29 11:10:06;;;;;;;15.83;10.80;;;;;;;11.20;85.34;96955.52;1699766;83;21594;-55
2021/11/29 11:12:33;;;;;;;14.10;10.60;;;;;;;11.17;85.24;96953.17;1699216;83;21479;-58
2021/11/29 11:15:07;;;;;;;18.98;8.83;;;;;;;11.13;85.11;96957.02;1705494;83;21494;-58
2021/11/29 11:17:34;;;;;;;16.07;8.80;;;;;;;11.15;85.33;96948.99;1698427;83;21589;-58
2021/11/29 11:20:05;;;;;;;11.03;9.03;;;;;;;11.20;85.23;96940.22;1702183;83;22147;-58
2021/11/29 11:22:38;;;;;;;13.50;10.18;;;;;;;11.19;85.33;96931.52;1700876;83;21407;-59
2021/11/29 11:25:11;;;;;;;12.05;9.13;;;;;;;11.20;85.18;96923.95;1697494;83;21471;-57
2021/11/29 11:27:46;;;;;;;12.55;8.93;;;;;;;11.17;85.37;96911.09;1695922;83;21557;-57
2021/11/29 11:30:17;;;;;;;14.40;10.23;;;;;;;11.19;85.36;96904.36;1692405;83;21522;-57
2021/11/29 11:32:46;;;;;;;12.78;9.15;;;;;;;11.21;85.40;96893.25;1703125;83;22076;-56
2021/11/29 11:35:21;;;;;;;14.63;9.93;;;;;;;11.26;85.42;96885.30;1698906;82;21427;-56
2021/11/29 11:37:51;;;;;;;15.65;9.98;;;;;;;11.31;85.34;96870.40;1697168;83;21546;-57
2021/11/29 11:40:20;;;;;;;14.40;10.28;;;;;;;11.27;85.45;96859.32;1699278;82;21042;-56